sensor_id;sensor_type;location;lat;lon;timestamp;pressure;altitude;pressure_sealevel;temperature;humidity
11676;BME280;5894;42.768;23.404;2023-02-26T00:02:15;94445.19;;;14.06;61.52
11676;BME280;5894;42.768;23.404;2023-02-26T00:04:42;94462.50;;;14.19;62.21
11676;BME280;5894;42.768;23.404;2023-02-26T00:07:09;94346.09;;;13.49;62.43
11676;BME280;5894;42.768;23.404;2023-02-26T00:09:36;94451.13;;;14.19;62.04
11676;BME280;5894;42.768;23.404;2023-02-26T00:12:04;94460.63;;;14.20;62.88
11676;BME280;5894;42.768;23.404;2023-02-26T00:14:32;94439.47;;;14.04;62.85
11676;BME280;5894;42.768;23.404;2023-02-26T00:17:19;94437.25;;;14.06;62.90
11676;BME280;5894;42.768;23.404;2023-02-26T00:19:48;94436.97;;;14.11;62.52
11676;BME280;5894;42.768;23.404;2023-02-26T00:22:15;94402.19;;;13.74;62.88
11676;BME280;5894;42.768;23.404;2023-02-26T00:24:42;94445.63;;;14.08;62.80
11676;BME280;5894;42.768;23.404;2023-02-26T00:27:11;94448.16;;;14.01;63.18
11676;BME280;5894;42.768;23.404;2023-02-26T00:29:39;94450.09;;;14.04;62.65
11676;BME280;5894;42.768;23.404;2023-02-26T00:32:06;94435.72;;;14.05;62.54
11676;BME280;5894;42.768;23.404;2023-02-26T00:34:34;94439.44;;;14.01;62.55
11676;BME280;5894;42.768;23.404;2023-02-26T00:37:09;94435.25;;;14.00;61.84
11676;BME280;5894;42.768;23.404;2023-02-26T00:39:45;94428.06;;;14.00;62.22
11676;BME280;5894;42.768;23.404;2023-02-26T00:42:17;94424.28;;;14.01;60.40
11676;BME280;5894;42.768;23.404;2023-02-26T00:44:44;94408.75;;;14.00;60.54
11676;BME280;5894;42.768;23.404;2023-02-26T00:47:17;94419.47;;;14.07;61.20
11676;BME280;5894;42.768;23.404;2023-02-26T00:49:54;94388.56;;;13.95;60.85
11676;BME280;5894;42.768;23.404;2023-02-26T00:52:31;94390.03;;;13.92;60.62
11676;BME280;5894;42.768;23.404;2023-02-26T00:54:59;94409.13;;;14.02;61.29
11676;BME280;5894;42.768;23.404;2023-02-26T00:57:28;94407.19;;;13.99;61.45
11676;BME280;5894;42.768;23.404;2023-02-26T00:59:54;94392.84;;;14.00;61.31
11676;BME280;5894;42.768;23.404;2023-02-26T01:02:22;94398.06;;;13.96;60.32
11676;BME280;5894;42.768;23.404;2023-02-26T01:04:49;94352.47;;;13.68;59.74
11676;BME280;5894;42.768;23.404;2023-02-26T01:07:17;94370.88;;;13.80;60.72
11676;BME280;5894;42.768;23.404;2023-02-26T01:09:47;94394.72;;;13.99;60.46
11676;BME280;5894;42.768;23.404;2023-02-26T01:12:14;94383.00;;;14.00;60.70
11676;BME280;5894;42.768;23.404;2023-02-26T01:14:44;94400.00;;;13.99;60.30
11676;BME280;5894;42.768;23.404;2023-02-26T01:17:16;94371.09;;;13.90;59.94
11676;BME280;5894;42.768;23.404;2023-02-26T01:19:49;94365.38;;;13.88;59.25
11676;BME280;5894;42.768;23.404;2023-02-26T01:22:21;94377.63;;;13.96;59.18
11676;BME280;5894;42.768;23.404;2023-02-26T01:24:55;94375.31;;;13.95;58.74
11676;BME280;5894;42.768;23.404;2023-02-26T01:27:25;94363.69;;;14.00;58.80
11676;BME280;5894;42.768;23.404;2023-02-26T01:29:54;94362.84;;;13.95;57.68
11676;BME280;5894;42.768;23.404;2023-02-26T01:32:24;94357.34;;;13.85;56.85
11676;BME280;5894;42.768;23.404;2023-02-26T01:34:58;94368.22;;;13.99;57.52
11676;BME280;5894;42.768;23.404;2023-02-26T01:37:32;94333.28;;;13.74;57.65
11676;BME280;5894;42.768;23.404;2023-02-26T01:40:22;94347.06;;;14.03;56.80
11676;BME280;5894;42.768;23.404;2023-02-26T01:42:59;94338.56;;;13.93;56.47
11676;BME280;5894;42.768;23.404;2023-02-26T01:45:32;94312.59;;;13.80;57.30
11676;BME280;5894;42.768;23.404;2023-02-26T01:48:04;94336.88;;;14.05;55.16
11676;BME280;5894;42.768;23.404;2023-02-26T01:50:33;94337.97;;;14.04;55.77
11676;BME280;5894;42.768;23.404;2023-02-26T01:53:16;94319.13;;;13.86;56.24
11676;BME280;5894;42.768;23.404;2023-02-26T01:55:45;94343.94;;;13.97;55.95
11676;BME280;5894;42.768;23.404;2023-02-26T01:58:14;94355.06;;;14.06;55.75
11676;BME280;5894;42.768;23.404;2023-02-26T02:00:43;94344.13;;;14.08;54.66
11676;BME280;5894;42.768;23.404;2023-02-26T02:03:10;94353.25;;;14.10;55.57
11676;BME280;5894;42.768;23.404;2023-02-26T02:05:40;94359.59;;;14.06;56.50
11676;BME280;5894;42.768;23.404;2023-02-26T02:08:08;94346.47;;;13.90;57.19
11676;BME280;5894;42.768;23.404;2023-02-26T02:10:40;94350.59;;;13.87;57.20
11676;BME280;5894;42.768;23.404;2023-02-26T02:13:15;94358.19;;;13.89;58.46
11676;BME280;5894;42.768;23.404;2023-02-26T02:15:53;94344.19;;;13.69;57.56
11676;BME280;5894;42.768;23.404;2023-02-26T02:18:36;94347.09;;;13.83;55.98
11676;BME280;5894;42.768;23.404;2023-02-26T02:21:27;94375.53;;;13.86;57.75
11676;BME280;5894;42.768;23.404;2023-02-26T02:24:00;94358.44;;;13.84;58.21
11676;BME280;5894;42.768;23.404;2023-02-26T02:26:51;94347.72;;;13.77;57.72
11676;BME280;5894;42.768;23.404;2023-02-26T02:32:27;94364.31;;;13.74;56.42
11676;BME280;5894;42.768;23.404;2023-02-26T02:34:59;94326.91;;;13.56;56.88
11676;BME280;5894;42.768;23.404;2023-02-26T02:37:31;94357.63;;;13.80;57.37
11676;BME280;5894;42.768;23.404;2023-02-26T02:40:02;94377.66;;;13.77;57.32
11676;BME280;5894;42.768;23.404;2023-02-26T02:42:34;94376.44;;;13.75;56.47
11676;BME280;5894;42.768;23.404;2023-02-26T02:45:06;94343.06;;;13.70;57.22
11676;BME280;5894;42.768;23.404;2023-02-26T02:47:39;94360.44;;;13.68;57.52
11676;BME280;5894;42.768;23.404;2023-02-26T02:50:10;94342.09;;;13.78;55.72
11676;BME280;5894;42.768;23.404;2023-02-26T02:52:42;94379.78;;;13.72;56.63
11676;BME280;5894;42.768;23.404;2023-02-26T02:55:14;94368.28;;;13.64;56.62
11676;BME280;5894;42.768;23.404;2023-02-26T02:57:47;94384.28;;;13.68;55.90
11676;BME280;5894;42.768;23.404;2023-02-26T03:00:17;94352.25;;;13.76;55.59
11676;BME280;5894;42.768;23.404;2023-02-26T03:02:51;94347.19;;;13.48;53.17
11676;BME280;5894;42.768;23.404;2023-02-26T03:05:19;94354.03;;;13.49;53.65
11676;BME280;5894;42.768;23.404;2023-02-26T03:07:49;94372.38;;;13.81;54.85
11676;BME280;5894;42.768;23.404;2023-02-26T03:10:19;94353.94;;;13.65;55.04
11676;BME280;5894;42.768;23.404;2023-02-26T03:12:46;94285.16;;;13.30;55.18
11676;BME280;5894;42.768;23.404;2023-02-26T03:15:13;94347.09;;;13.45;56.28
11676;BME280;5894;42.768;23.404;2023-02-26T03:17:47;94361.75;;;13.77;56.65
11676;BME280;5894;42.768;23.404;2023-02-26T03:20:23;94362.44;;;13.74;56.73
11676;BME280;5894;42.768;23.404;2023-02-26T03:23:01;94333.22;;;13.51;56.27
11676;BME280;5894;42.768;23.404;2023-02-26T03:25:45;94326.47;;;13.54;56.36
11676;BME280;5894;42.768;23.404;2023-02-26T03:28:22;94377.91;;;13.72;55.97
11676;BME280;5894;42.768;23.404;2023-02-26T03:30:55;94320.41;;;13.73;54.72
11676;BME280;5894;42.768;23.404;2023-02-26T03:33:26;94362.72;;;13.69;56.41
11676;BME280;5894;42.768;23.404;2023-02-26T03:36:00;94358.53;;;13.68;56.77
11676;BME280;5894;42.768;23.404;2023-02-26T03:38:35;94333.00;;;13.60;56.75
11676;BME280;5894;42.768;23.404;2023-02-26T03:41:06;94358.38;;;13.42;56.58
11676;BME280;5894;42.768;23.404;2023-02-26T03:43:37;94348.00;;;13.52;55.78
11676;BME280;5894;42.768;23.404;2023-02-26T03:46:26;94338.88;;;13.50;54.17
11676;BME280;5894;42.768;23.404;2023-02-26T03:48:56;94353.94;;;13.46;55.50
11676;BME280;5894;42.768;23.404;2023-02-26T03:51:27;94296.34;;;13.04;55.43
11676;BME280;5894;42.768;23.404;2023-02-26T03:54:06;94248.34;;;12.86;54.11
11676;BME280;5894;42.768;23.404;2023-02-26T03:56:40;94365.09;;;13.55;54.70
11676;BME280;5894;42.768;23.404;2023-02-26T03:59:27;94328.84;;;13.40;54.79
11676;BME280;5894;42.768;23.404;2023-02-26T04:02:16;94348.66;;;13.46;54.45
11676;BME280;5894;42.768;23.404;2023-02-26T04:04:49;94357.06;;;13.51;54.01
11676;BME280;5894;42.768;23.404;2023-02-26T04:07:20;94364.31;;;13.54;54.03
11676;BME280;5894;42.768;23.404;2023-02-26T04:09:50;94303.00;;;13.33;53.65
11676;BME280;5894;42.768;23.404;2023-02-26T04:12:20;94308.84;;;13.23;54.17
11676;BME280;5894;42.768;23.404;2023-02-26T04:14:49;94335.63;;;13.56;53.88
11676;BME280;5894;42.768;23.404;2023-02-26T04:17:16;94353.88;;;13.62;53.99
11676;BME280;5894;42.768;23.404;2023-02-26T04:19:43;94293.31;;;13.21;53.88
11676;BME280;5894;42.768;23.404;2023-02-26T04:22:10;94345.22;;;13.65;53.48
11676;BME280;5894;42.768;23.404;2023-02-26T04:24:38;94331.50;;;13.59;54.13
11676;BME280;5894;42.768;23.404;2023-02-26T04:27:06;94333.53;;;13.46;53.96
11676;BME280;5894;42.768;23.404;2023-02-26T04:29:33;94333.72;;;13.57;54.96
11676;BME280;5894;42.768;23.404;2023-02-26T04:32:01;94331.09;;;13.57;55.93
11676;BME280;5894;42.768;23.404;2023-02-26T04:34:28;94274.94;;;13.29;55.94
11676;BME280;5894;42.768;23.404;2023-02-26T04:36:55;94308.78;;;13.39;56.41
11676;BME280;5894;42.768;23.404;2023-02-26T04:39:22;94290.25;;;13.39;57.55
11676;BME280;5894;42.768;23.404;2023-02-26T04:41:50;94317.97;;;13.45;57.88
11676;BME280;5894;42.768;23.404;2023-02-26T04:44:18;94330.25;;;13.34;58.45
11676;BME280;5894;42.768;23.404;2023-02-26T04:46:45;94282.19;;;12.97;58.26
11676;BME280;5894;42.768;23.404;2023-02-26T04:49:12;94309.72;;;13.11;58.57
11676;BME280;5894;42.768;23.404;2023-02-26T04:51:42;94312.31;;;13.08;59.14
11676;BME280;5894;42.768;23.404;2023-02-26T04:54:11;94323.97;;;13.22;59.37
11676;BME280;5894;42.768;23.404;2023-02-26T04:56:38;94334.56;;;13.22;59.99
11676;BME280;5894;42.768;23.404;2023-02-26T04:59:06;94318.59;;;13.19;59.95
11676;BME280;5894;42.768;23.404;2023-02-26T05:01:34;94256.22;;;12.83;59.63
11676;BME280;5894;42.768;23.404;2023-02-26T05:04:03;94314.13;;;13.23;60.13
11676;BME280;5894;42.768;23.404;2023-02-26T05:06:31;94303.63;;;13.27;60.41
11676;BME280;5894;42.768;23.404;2023-02-26T05:08:58;94305.94;;;13.28;58.62
11676;BME280;5894;42.768;23.404;2023-02-26T05:11:25;94281.56;;;13.03;57.06
11676;BME280;5894;42.768;23.404;2023-02-26T05:13:52;94297.91;;;13.25;57.03
11676;BME280;5894;42.768;23.404;2023-02-26T05:16:20;94281.22;;;13.05;57.58
11676;BME280;5894;42.768;23.404;2023-02-26T05:18:47;94307.06;;;13.11;57.71
11676;BME280;5894;42.768;23.404;2023-02-26T05:21:14;94301.47;;;13.32;57.01
11676;BME280;5894;42.768;23.404;2023-02-26T05:23:41;94314.28;;;13.30;57.06
11676;BME280;5894;42.768;23.404;2023-02-26T05:26:07;94329.38;;;13.30;57.58
11676;BME280;5894;42.768;23.404;2023-02-26T05:28:34;94305.34;;;13.19;57.52
11676;BME280;5894;42.768;23.404;2023-02-26T05:31:02;94321.44;;;13.30;57.50
11676;BME280;5894;42.768;23.404;2023-02-26T05:33:31;94275.06;;;12.81;57.80
11676;BME280;5894;42.768;23.404;2023-02-26T05:35:58;94306.00;;;13.32;57.53
11676;BME280;5894;42.768;23.404;2023-02-26T05:38:24;94314.34;;;13.34;57.38
11676;BME280;5894;42.768;23.404;2023-02-26T05:40:55;94267.00;;;12.94;58.51
11676;BME280;5894;42.768;23.404;2023-02-26T05:43:23;94296.59;;;13.15;57.96
11676;BME280;5894;42.768;23.404;2023-02-26T05:45:50;94325.97;;;13.29;58.33
11676;BME280;5894;42.768;23.404;2023-02-26T05:48:17;94256.69;;;12.88;58.12
11676;BME280;5894;42.768;23.404;2023-02-26T05:50:47;94327.47;;;13.27;58.34
11676;BME280;5894;42.768;23.404;2023-02-26T05:53:14;94249.78;;;12.65;57.12
11676;BME280;5894;42.768;23.404;2023-02-26T05:55:41;94320.19;;;13.23;54.07
11676;BME280;5894;42.768;23.404;2023-02-26T05:58:08;94347.16;;;13.29;53.61
11676;BME280;5894;42.768;23.404;2023-02-26T06:00:35;94331.13;;;13.41;54.28
11676;BME280;5894;42.768;23.404;2023-02-26T06:03:02;94322.59;;;13.48;52.65
11676;BME280;5894;42.768;23.404;2023-02-26T06:05:28;94296.03;;;13.44;51.52
11676;BME280;5894;42.768;23.404;2023-02-26T06:07:56;94332.09;;;13.72;51.41
11676;BME280;5894;42.768;23.404;2023-02-26T06:10:23;94300.31;;;13.72;50.65
11676;BME280;5894;42.768;23.404;2023-02-26T06:12:50;94310.34;;;13.82;50.34
11676;BME280;5894;42.768;23.404;2023-02-26T06:15:17;94304.84;;;13.90;49.68
11676;BME280;5894;42.768;23.404;2023-02-26T06:17:43;94308.38;;;13.98;49.57
11676;BME280;5894;42.768;23.404;2023-02-26T06:20:11;94298.03;;;14.39;47.43
11676;BME280;5894;42.768;23.404;2023-02-26T06:22:38;94326.41;;;14.57;46.35
11676;BME280;5894;42.768;23.404;2023-02-26T06:25:07;94325.88;;;14.48;51.38
11676;BME280;5894;42.768;23.404;2023-02-26T06:27:34;94330.78;;;14.46;51.70
11676;BME280;5894;42.768;23.404;2023-02-26T06:30:01;94348.13;;;14.40;52.14
11676;BME280;5894;42.768;23.404;2023-02-26T06:32:28;94334.91;;;14.21;52.02
11676;BME280;5894;42.768;23.404;2023-02-26T06:34:54;94355.47;;;14.50;49.94
11676;BME280;5894;42.768;23.404;2023-02-26T06:37:21;94326.81;;;14.59;46.45
11676;BME280;5894;42.768;23.404;2023-02-26T06:39:48;94324.16;;;14.59;46.93
11676;BME280;5894;42.768;23.404;2023-02-26T06:42:16;94328.69;;;14.59;49.04
11676;BME280;5894;42.768;23.404;2023-02-26T06:44:43;94342.28;;;14.80;48.70
11676;BME280;5894;42.768;23.404;2023-02-26T06:47:09;94235.69;;;14.22;49.20
11676;BME280;5894;42.768;23.404;2023-02-26T06:49:36;94317.28;;;14.81;49.11
11676;BME280;5894;42.768;23.404;2023-02-26T06:52:03;94325.84;;;14.97;49.03
11676;BME280;5894;42.768;23.404;2023-02-26T06:54:30;94335.06;;;15.07;48.68
11676;BME280;5894;42.768;23.404;2023-02-26T06:56:59;94329.91;;;15.18;48.09
11676;BME280;5894;42.768;23.404;2023-02-26T06:59:29;94314.59;;;15.07;48.81
11676;BME280;5894;42.768;23.404;2023-02-26T07:01:55;94330.09;;;15.32;49.88
11676;BME280;5894;42.768;23.404;2023-02-26T07:04:22;94292.94;;;15.02;50.05
11676;BME280;5894;42.768;23.404;2023-02-26T07:06:49;94300.25;;;15.12;48.02
11676;BME280;5894;42.768;23.404;2023-02-26T07:09:16;94337.78;;;15.40;47.05
11676;BME280;5894;42.768;23.404;2023-02-26T07:11:44;94352.69;;;15.49;47.69
11676;BME280;5894;42.768;23.404;2023-02-26T07:14:10;94326.41;;;15.40;45.56
11676;BME280;5894;42.768;23.404;2023-02-26T07:16:39;94345.28;;;15.61;47.90
11676;BME280;5894;42.768;23.404;2023-02-26T07:19:06;94344.88;;;15.59;47.04
11676;BME280;5894;42.768;23.404;2023-02-26T07:21:32;94346.09;;;15.65;45.06
11676;BME280;5894;42.768;23.404;2023-02-26T07:23:59;94342.41;;;15.73;43.53
11676;BME280;5894;42.768;23.404;2023-02-26T07:26:26;94323.50;;;15.82;41.97
11676;BME280;5894;42.768;23.404;2023-02-26T07:28:53;94331.88;;;15.84;42.31
11676;BME280;5894;42.768;23.404;2023-02-26T07:31:20;94315.47;;;15.78;42.52
11676;BME280;5894;42.768;23.404;2023-02-26T07:33:48;94320.13;;;15.85;41.54
11676;BME280;5894;42.768;23.404;2023-02-26T07:36:15;94292.13;;;15.61;42.29
11676;BME280;5894;42.768;23.404;2023-02-26T07:38:42;94324.34;;;15.90;41.76
11676;BME280;5894;42.768;23.404;2023-02-26T07:41:08;94321.31;;;15.91;40.81
11676;BME280;5894;42.768;23.404;2023-02-26T07:43:35;94303.69;;;15.76;40.60
11676;BME280;5894;42.768;23.404;2023-02-26T07:46:02;94320.53;;;15.91;40.82
11676;BME280;5894;42.768;23.404;2023-02-26T07:48:29;94331.69;;;16.03;40.59
11676;BME280;5894;42.768;23.404;2023-02-26T07:50:57;94284.28;;;15.72;41.24
11676;BME280;5894;42.768;23.404;2023-02-26T07:53:24;94279.38;;;15.74;40.56
11676;BME280;5894;42.768;23.404;2023-02-26T07:55:51;94335.47;;;16.02;40.89
11676;BME280;5894;42.768;23.404;2023-02-26T07:58:18;94352.25;;;16.10;41.68
11676;BME280;5894;42.768;23.404;2023-02-26T08:00:45;94354.59;;;16.15;40.20
11676;BME280;5894;42.768;23.404;2023-02-26T08:03:12;94347.78;;;16.18;40.08
11676;BME280;5894;42.768;23.404;2023-02-26T08:05:40;94320.34;;;16.10;39.87
11676;BME280;5894;42.768;23.404;2023-02-26T08:08:08;94332.59;;;16.18;39.70
11676;BME280;5894;42.768;23.404;2023-02-26T08:10:34;94354.75;;;16.33;39.21
11676;BME280;5894;42.768;23.404;2023-02-26T08:13:01;94358.97;;;16.34;39.82
11676;BME280;5894;42.768;23.404;2023-02-26T08:15:28;94366.28;;;16.44;37.72
11676;BME280;5894;42.768;23.404;2023-02-26T08:17:55;94343.81;;;16.41;38.59
11676;BME280;5894;42.768;23.404;2023-02-26T08:20:22;94354.25;;;16.61;38.05
11676;BME280;5894;42.768;23.404;2023-02-26T08:22:49;94329.38;;;16.42;38.69
11676;BME280;5894;42.768;23.404;2023-02-26T08:25:17;94317.88;;;16.31;39.08
11676;BME280;5894;42.768;23.404;2023-02-26T08:27:44;94284.34;;;16.20;39.09
11676;BME280;5894;42.768;23.404;2023-02-26T08:30:12;94361.19;;;16.72;39.16
11676;BME280;5894;42.768;23.404;2023-02-26T08:32:39;94321.09;;;16.51;38.37
11676;BME280;5894;42.768;23.404;2023-02-26T08:35:07;94360.88;;;16.77;39.81
11676;BME280;5894;42.768;23.404;2023-02-26T08:37:35;94386.78;;;16.84;39.12
11676;BME280;5894;42.768;23.404;2023-02-26T08:40:03;94386.44;;;16.89;39.77
11676;BME280;5894;42.768;23.404;2023-02-26T08:42:31;94341.47;;;16.77;37.55
11676;BME280;5894;42.768;23.404;2023-02-26T08:44:58;94354.91;;;16.91;39.16
11676;BME280;5894;42.768;23.404;2023-02-26T08:47:25;94371.66;;;16.95;38.28
11676;BME280;5894;42.768;23.404;2023-02-26T08:49:52;94380.81;;;16.98;37.51
11676;BME280;5894;42.768;23.404;2023-02-26T08:52:18;94375.91;;;17.07;36.53
11676;BME280;5894;42.768;23.404;2023-02-26T08:54:45;94381.31;;;17.17;35.24
11676;BME280;5894;42.768;23.404;2023-02-26T08:57:12;94363.00;;;17.09;36.56
11676;BME280;5894;42.768;23.404;2023-02-26T08:59:40;94382.91;;;17.29;36.22
11676;BME280;5894;42.768;23.404;2023-02-26T09:02:09;94395.88;;;17.34;36.00
11676;BME280;5894;42.768;23.404;2023-02-26T09:04:36;94361.88;;;17.10;37.37
11676;BME280;5894;42.768;23.404;2023-02-26T09:07:03;94398.19;;;17.39;35.51
11676;BME280;5894;42.768;23.404;2023-02-26T09:09:29;94393.25;;;17.45;35.91
11676;BME280;5894;42.768;23.404;2023-02-26T09:11:57;94386.81;;;17.49;35.16
11676;BME280;5894;42.768;23.404;2023-02-26T09:14:24;94379.59;;;17.50;35.57
11676;BME280;5894;42.768;23.404;2023-02-26T09:16:52;94374.25;;;17.50;35.18
11676;BME280;5894;42.768;23.404;2023-02-26T09:19:19;94370.88;;;17.53;35.17
11676;BME280;5894;42.768;23.404;2023-02-26T09:21:46;94365.50;;;17.49;36.25
11676;BME280;5894;42.768;23.404;2023-02-26T09:24:13;94356.38;;;17.50;37.41
11676;BME280;5894;42.768;23.404;2023-02-26T09:26:40;94367.09;;;17.61;36.42
11676;BME280;5894;42.768;23.404;2023-02-26T09:29:07;94360.66;;;17.66;33.73
11676;BME280;5894;42.768;23.404;2023-02-26T09:31:33;94360.28;;;17.64;34.93
11676;BME280;5894;42.768;23.404;2023-02-26T09:34:01;94360.28;;;17.67;34.64
11676;BME280;5894;42.768;23.404;2023-02-26T09:36:28;94355.34;;;17.69;33.62
11676;BME280;5894;42.768;23.404;2023-02-26T09:38:55;94348.09;;;17.66;33.23
11676;BME280;5894;42.768;23.404;2023-02-26T09:41:25;94341.53;;;17.53;34.75
11676;BME280;5894;42.768;23.404;2023-02-26T09:44:01;94357.97;;;17.66;34.50
11676;BME280;5894;42.768;23.404;2023-02-26T09:46:37;94345.41;;;17.63;34.77
11676;BME280;5894;42.768;23.404;2023-02-26T09:49:16;94345.81;;;17.65;35.35
11676;BME280;5894;42.768;23.404;2023-02-26T09:51:46;94338.50;;;17.54;35.90
11676;BME280;5894;42.768;23.404;2023-02-26T09:54:16;94335.41;;;17.45;36.56
11676;BME280;5894;42.768;23.404;2023-02-26T09:56:45;94361.34;;;17.59;36.70
11676;BME280;5894;42.768;23.404;2023-02-26T09:59:12;94347.97;;;17.45;36.08
11676;BME280;5894;42.768;23.404;2023-02-26T10:01:44;94351.03;;;17.50;36.84
11676;BME280;5894;42.768;23.404;2023-02-26T10:04:23;94359.38;;;17.45;36.47
11676;BME280;5894;42.768;23.404;2023-02-26T10:07:01;94362.50;;;17.54;37.92
11676;BME280;5894;42.768;23.404;2023-02-26T10:09:40;94341.56;;;17.60;37.42
11676;BME280;5894;42.768;23.404;2023-02-26T10:12:13;94356.53;;;17.82;37.91
11676;BME280;5894;42.768;23.404;2023-02-26T10:14:44;94356.94;;;17.98;38.02
11676;BME280;5894;42.768;23.404;2023-02-26T10:17:19;94357.38;;;18.11;36.10
11676;BME280;5894;42.768;23.404;2023-02-26T10:19:52;94343.69;;;18.16;34.79
11676;BME280;5894;42.768;23.404;2023-02-26T10:22:24;94360.09;;;18.32;32.79
11676;BME280;5894;42.768;23.404;2023-02-26T10:24:58;94347.88;;;18.28;33.75
11676;BME280;5894;42.768;23.404;2023-02-26T10:27:37;94357.03;;;18.30;34.79
11676;BME280;5894;42.768;23.404;2023-02-26T10:30:13;94326.13;;;18.12;36.53
11676;BME280;5894;42.768;23.404;2023-02-26T10:32:50;94331.88;;;18.24;35.04
11676;BME280;5894;42.768;23.404;2023-02-26T10:35:22;94358.56;;;18.39;33.84
11676;BME280;5894;42.768;23.404;2023-02-26T10:37:55;94344.47;;;18.34;33.92
11676;BME280;5894;42.768;23.404;2023-02-26T10:40:28;94347.91;;;18.46;35.16
11676;BME280;5894;42.768;23.404;2023-02-26T10:42:58;94336.09;;;18.54;33.77
11676;BME280;5894;42.768;23.404;2023-02-26T10:45:32;94335.72;;;18.55;31.40
11676;BME280;5894;42.768;23.404;2023-02-26T10:48:11;94333.03;;;18.52;33.95
11676;BME280;5894;42.768;23.404;2023-02-26T10:50:48;94235.41;;;18.01;32.72
11676;BME280;5894;42.768;23.404;2023-02-26T10:53:15;94320.47;;;18.59;31.58
11676;BME280;5894;42.768;23.404;2023-02-26T10:55:44;94317.41;;;18.54;33.44
11676;BME280;5894;42.768;23.404;2023-02-26T10:58:14;94326.94;;;18.44;33.36
11676;BME280;5894;42.768;23.404;2023-02-26T11:00:43;94322.72;;;18.40;34.16
11676;BME280;5894;42.768;23.404;2023-02-26T11:03:18;94320.81;;;18.40;32.09
11676;BME280;5894;42.768;23.404;2023-02-26T11:05:47;94314.31;;;18.38;33.02
11676;BME280;5894;42.768;23.404;2023-02-26T11:08:17;94304.03;;;18.32;31.22
11676;BME280;5894;42.768;23.404;2023-02-26T11:10:48;94274.28;;;18.09;31.51
11676;BME280;5894;42.768;23.404;2023-02-26T11:13:16;94241.47;;;17.80;30.65
11676;BME280;5894;42.768;23.404;2023-02-26T11:15:46;94309.00;;;18.23;31.96
11676;BME280;5894;42.768;23.404;2023-02-26T11:18:16;94293.34;;;18.08;32.82
11676;BME280;5894;42.768;23.404;2023-02-26T11:20:47;94303.63;;;18.09;32.92
11676;BME280;5894;42.768;23.404;2023-02-26T11:23:17;94310.88;;;18.05;32.44
11676;BME280;5894;42.768;23.404;2023-02-26T11:25:45;94299.81;;;18.07;31.66
11676;BME280;5894;42.768;23.404;2023-02-26T11:28:20;94296.75;;;18.01;32.77
11676;BME280;5894;42.768;23.404;2023-02-26T11:30:49;94306.28;;;17.95;32.68
11676;BME280;5894;42.768;23.404;2023-02-26T11:33:22;94284.88;;;17.70;32.70
11676;BME280;5894;42.768;23.404;2023-02-26T11:35:51;94310.06;;;17.83;33.09
11676;BME280;5894;42.768;23.404;2023-02-26T11:38:21;94321.50;;;17.91;34.39
11676;BME280;5894;42.768;23.404;2023-02-26T11:40:51;94321.13;;;17.89;35.35
11676;BME280;5894;42.768;23.404;2023-02-26T11:43:22;94328.34;;;17.88;35.40
11676;BME280;5894;42.768;23.404;2023-02-26T11:45:52;94240.97;;;17.39;36.22
11676;BME280;5894;42.768;23.404;2023-02-26T11:48:22;94334.84;;;17.98;34.92
11676;BME280;5894;42.768;23.404;2023-02-26T11:50:55;94344.41;;;17.95;35.01
11676;BME280;5894;42.768;23.404;2023-02-26T11:53:25;94334.44;;;17.82;34.83
11676;BME280;5894;42.768;23.404;2023-02-26T11:55:59;94305.78;;;17.61;35.23
11676;BME280;5894;42.768;23.404;2023-02-26T11:58:28;94318.78;;;17.70;35.54
11676;BME280;5894;42.768;23.404;2023-02-26T12:00:57;94346.25;;;17.81;33.93
11676;BME280;5894;42.768;23.404;2023-02-26T12:03:26;94357.66;;;17.78;34.17
11676;BME280;5894;42.768;23.404;2023-02-26T12:05:56;94361.88;;;17.82;33.81
11676;BME280;5894;42.768;23.404;2023-02-26T12:08:26;94353.09;;;17.82;34.84
11676;BME280;5894;42.768;23.404;2023-02-26T12:11:06;94357.28;;;17.79;35.24
11676;BME280;5894;42.768;23.404;2023-02-26T12:13:42;94374.78;;;17.73;34.81
11676;BME280;5894;42.768;23.404;2023-02-26T12:16:19;94362.94;;;17.64;35.68
11676;BME280;5894;42.768;23.404;2023-02-26T12:18:55;94368.34;;;17.81;35.90
11676;BME280;5894;42.768;23.404;2023-02-26T12:21:47;94366.75;;;17.63;35.30
11676;BME280;5894;42.768;23.404;2023-02-26T12:24:41;94378.94;;;17.67;37.09
11676;BME280;5894;42.768;23.404;2023-02-26T12:27:17;94345.34;;;17.52;39.12
11676;BME280;5894;42.768;23.404;2023-02-26T12:32:52;94355.94;;;17.38;40.95
11676;BME280;5894;42.768;23.404;2023-02-26T12:35:34;94342.84;;;17.11;40.12
11676;BME280;5894;42.768;23.404;2023-02-26T12:38:09;94355.06;;;17.19;41.87
11676;BME280;5894;42.768;23.404;2023-02-26T12:43:45;94334.84;;;17.08;41.71
11676;BME280;5894;42.768;23.404;2023-02-26T12:46:21;94369.50;;;17.15;38.96
11676;BME280;5894;42.768;23.404;2023-02-26T12:52:29;94300.94;;;17.05;41.46
11676;BME280;5894;42.768;23.404;2023-02-26T12:55:21;94344.69;;;17.04;40.39
11676;BME280;5894;42.768;23.404;2023-02-26T12:58:17;94311.59;;;17.01;39.67
11676;BME280;5894;42.768;23.404;2023-02-26T13:00:58;94317.28;;;17.03;39.67
11676;BME280;5894;42.768;23.404;2023-02-26T13:03:46;94311.97;;;17.03;42.02
11676;BME280;5894;42.768;23.404;2023-02-26T13:06:57;94187.13;;;16.26;41.68
11676;BME280;5894;42.768;23.404;2023-02-26T13:09:32;94297.44;;;16.94;42.04
11676;BME280;5894;42.768;23.404;2023-02-26T13:12:14;94315.72;;;16.95;42.18
11676;BME280;5894;42.768;23.404;2023-02-26T13:14:50;94300.84;;;16.87;41.93
11676;BME280;5894;42.768;23.404;2023-02-26T13:17:26;94286.72;;;16.79;42.97
11676;BME280;5894;42.768;23.404;2023-02-26T13:19:58;94299.69;;;16.84;43.26
11676;BME280;5894;42.768;23.404;2023-02-26T13:22:29;94301.22;;;16.85;43.17
11676;BME280;5894;42.768;23.404;2023-02-26T13:25:00;94298.56;;;16.85;42.22
11676;BME280;5894;42.768;23.404;2023-02-26T13:27:33;94300.84;;;16.87;43.29
11676;BME280;5894;42.768;23.404;2023-02-26T13:30:16;94275.16;;;16.61;42.62
11676;BME280;5894;42.768;23.404;2023-02-26T13:32:46;94316.47;;;16.88;42.15